Time;durP1;ratioP1;P1;durP2;ratioP2;P2;SDS_P1;SDS_P2;PMS_P1;PMS_P2;Temp;Humidity;BMP_temperature;BMP_pressure;BME280_temperature;BME280_humidity;BME280_pressure;Samples;Min_cycle;Max_cycle;Signal;HPM_P1;HPM_P2
2022/03/20 00:01:28;;;;;;;18.55;12.45;;;;;;;;;;10192858;28;20478;-54
2022/03/20 00:06:26;;;;;;;19.40;13.45;;;;;;;;;;10191096;28;20471;-55
2022/03/20 00:11:27;;;;;;;22.98;14.48;;;;;;;;;;10193001;28;20073;-52
2022/03/20 00:16:29;;;;;;;19.10;12.95;;;;;;;;;;10192662;28;20562;-53
2022/03/20 00:21:27;;;;;;;18.70;12.65;;;;;;;;;;10194891;28;20080;-53
2022/03/20 00:26:27;;;;;;;17.42;12.43;;;;;;;;;;10194685;28;20057;-53
2022/03/20 00:31:28;;;;;;;17.48;13.27;;;;;;;;;;10196390;28;20061;-53
2022/03/20 00:36:26;;;;;;;21.50;12.88;;;;;;;;;;10196458;28;20141;-54
2022/03/20 00:41:25;;;;;;;15.50;11.32;;;;;;;;;;10191212;28;20092;-53
2022/03/20 00:46:27;;;;;;;16.17;10.55;;;;;;;;;;10193495;28;20084;-53
2022/03/20 00:51:27;;;;;;;17.42;10.77;;;;;;;;;;10195809;28;20062;-54
2022/03/20 00:56:25;;;;;;;14.45;9.75;;;;;;;;;;10191362;28;20064;-55
2022/03/20 01:01:23;;;;;;;15.38;12.00;;;;;;;;;;10195397;28;20096;-53
2022/03/20 01:06:23;;;;;;;15.57;11.63;;;;;;;;;;10195163;28;20085;-55
2022/03/20 01:11:21;;;;;;;14.75;10.60;;;;;;;;;;10194282;28;20274;-54
2022/03/20 01:16:20;;;;;;;21.52;12.65;;;;;;;;;;10194728;28;20425;-54
2022/03/20 01:21:18;;;;;;;19.15;12.25;;;;;;;;;;10194397;28;20074;-54
2022/03/20 01:26:18;;;;;;;16.85;12.32;;;;;;;;;;10194514;28;20507;-55
2022/03/20 01:31:16;;;;;;;26.25;17.95;;;;;;;;;;10188993;28;20525;-57
2022/03/20 01:36:15;;;;;;;16.80;12.35;;;;;;;;;;10193686;28;20499;-55
2022/03/20 01:41:13;;;;;;;18.27;11.70;;;;;;;;;;10189053;28;20081;-55
2022/03/20 01:46:12;;;;;;;18.58;12.52;;;;;;;;;;10184723;28;20494;-55
2022/03/20 01:51:11;;;;;;;17.27;12.43;;;;;;;;;;10187938;28;20510;-54
2022/03/20 01:56:10;;;;;;;17.15;12.27;;;;;;;;;;10193158;28;20076;-55
2022/03/20 02:01:08;;;;;;;23.25;12.75;;;;;;;;;;10192550;28;20089;-56
2022/03/20 02:06:08;;;;;;;19.90;13.60;;;;;;;;;;10193367;28;20066;-54
2022/03/20 02:11:06;;;;;;;21.40;13.57;;;;;;;;;;10191405;28;20081;-52
2022/03/20 02:16:05;;;;;;;21.23;13.68;;;;;;;;;;10192680;28;20443;-55
2022/03/20 02:21:05;;;;;;;19.13;13.18;;;;;;;;;;10193030;28;20065;-52
2022/03/20 02:26:07;;;;;;;19.17;13.13;;;;;;;;;;10188171;28;20065;-52
2022/03/20 02:31:06;;;;;;;22.52;13.68;;;;;;;;;;10192276;28;20081;-50
2022/03/20 02:36:06;;;;;;;20.38;15.43;;;;;;;;;;10191888;28;20073;-54
2022/03/20 02:41:14;;;;;;;17.25;13.30;;;;;;;;;;10191600;28;20069;-52
2022/03/20 02:46:12;;;;;;;20.17;14.40;;;;;;;;;;10191519;28;20425;-55
2022/03/20 02:51:14;;;;;;;23.13;17.10;;;;;;;;;;10191065;28;20082;-53
2022/03/20 02:56:12;;;;;;;18.88;13.35;;;;;;;;;;10189612;28;20080;-54
2022/03/20 03:01:11;;;;;;;20.85;13.50;;;;;;;;;;10191141;28;20169;-55
2022/03/20 03:06:09;;;;;;;21.27;13.70;;;;;;;;;;10187200;28;20069;-52
2022/03/20 03:11:09;;;;;;;18.88;13.70;;;;;;;;;;10186581;28;20085;-52
2022/03/20 03:16:08;;;;;;;21.75;14.90;;;;;;;;;;10187059;28;20530;-52
2022/03/20 03:21:10;;;;;;;21.27;12.60;;;;;;;;;;10191112;28;20081;-53
2022/03/20 03:26:10;;;;;;;20.08;13.98;;;;;;;;;;10190409;28;20297;-56
2022/03/20 03:31:09;;;;;;;20.95;14.52;;;;;;;;;;10191280;28;20515;-54
2022/03/20 03:36:07;;;;;;;25.90;14.13;;;;;;;;;;10186954;28;20077;-56
2022/03/20 03:41:06;;;;;;;20.58;15.27;;;;;;;;;;10183436;28;20070;-54
2022/03/20 03:46:05;;;;;;;20.20;14.95;;;;;;;;;;10188329;28;20066;-55
2022/03/20 03:51:04;;;;;;;23.90;14.48;;;;;;;;;;10184158;28;20514;-55
2022/03/20 03:56:02;;;;;;;29.77;17.80;;;;;;;;;;10192024;28;20717;-56
2022/03/20 04:01:00;;;;;;;24.88;17.10;;;;;;;;;;10196765;28;20088;-55
2022/03/20 04:06:04;;;;;;;57.78;35.13;;;;;;;;;;10197602;28;20072;-54
2022/03/20 04:11:03;;;;;;;87.90;51.13;;;;;;;;;;10192732;28;20077;-52
2022/03/20 04:16:02;;;;;;;25.73;18.40;;;;;;;;;;10185367;28;20068;-49
2022/03/20 04:21:01;;;;;;;21.33;14.48;;;;;;;;;;10189707;28;20080;-52
2022/03/20 04:26:00;;;;;;;18.38;14.45;;;;;;;;;;10191051;28;20070;-52
2022/03/20 04:30:58;;;;;;;20.40;14.82;;;;;;;;;;10191520;28;20069;-51
2022/03/20 04:35:57;;;;;;;22.17;14.68;;;;;;;;;;10195806;28;20073;-49
2022/03/20 04:40:57;;;;;;;26.90;16.67;;;;;;;;;;10195764;28;20500;-51
2022/03/20 04:45:55;;;;;;;22.88;14.85;;;;;;;;;;10194795;28;20072;-49
2022/03/20 05:01:26;;;;;;;31.38;18.85;;;;;;;;;;10190645;28;20096;-53
2022/03/20 05:06:25;;;;;;;23.83;17.65;;;;;;;;;;10186548;28;20069;-49
2022/03/20 05:16:40;;;;;;;20.92;14.27;;;;;;;;;;10190759;28;20431;-53
2022/03/20 05:21:38;;;;;;;18.95;13.18;;;;;;;;;;10187778;28;20121;-54
2022/03/20 05:26:38;;;;;;;27.55;16.15;;;;;;;;;;10194474;28;20526;-56
2022/03/20 05:31:37;;;;;;;27.95;20.25;;;;;;;;;;10193082;28;20065;-54
2022/03/20 05:36:35;;;;;;;26.15;16.95;;;;;;;;;;10190388;28;20420;-55
2022/03/20 05:41:47;;;;;;;25.75;19.13;;;;;;;;;;10187141;28;20069;-56
2022/03/20 05:46:48;;;;;;;22.35;17.65;;;;;;;;;;10194310;28;20081;-54
2022/03/20 05:51:47;;;;;;;28.73;18.27;;;;;;;;;;10188194;28;20069;-54
2022/03/20 06:02:02;;;;;;;23.60;16.85;;;;;;;;;;10188501;28;20082;-54
2022/03/20 06:07:01;;;;;;;26.58;19.23;;;;;;;;;;10188947;28;20070;-52
2022/03/20 06:11:59;;;;;;;26.63;18.05;;;;;;;;;;10188628;28;20069;-55
2022/03/20 06:17:00;;;;;;;40.92;22.50;;;;;;;;;;10193252;28;20140;-54
2022/03/20 06:22:00;;;;;;;31.95;21.83;;;;;;;;;;10193199;28;20088;-54
2022/03/20 06:26:58;;;;;;;34.55;22.65;;;;;;;;;;10187740;28;20061;-54
2022/03/20 06:31:56;;;;;;;50.10;30.88;;;;;;;;;;10170193;28;20073;-56
2022/03/20 06:36:57;;;;;;;53.92;34.35;;;;;;;;;;10168012;28;20073;-55
2022/03/20 06:41:57;;;;;;;27.20;18.08;;;;;;;;;;10168128;28;20073;-57
2022/03/20 06:46:55;;;;;;;25.55;17.90;;;;;;;;;;10180083;28;20150;-55
2022/03/20 06:51:54;;;;;;;26.95;15.70;;;;;;;;;;10167342;28;20054;-55
2022/03/20 06:56:54;;;;;;;38.50;25.13;;;;;;;;;;10169362;28;20475;-55
2022/03/20 07:01:54;;;;;;;18.08;14.70;;;;;;;;;;10163666;28;20090;-53
2022/03/20 07:06:53;;;;;;;26.00;18.95;;;;;;;;;;10177479;28;20113;-55
2022/03/20 07:11:51;;;;;;;28.80;17.70;;;;;;;;;;10178696;28;20448;-55
2022/03/20 07:16:50;;;;;;;27.02;18.45;;;;;;;;;;10179254;28;20070;-53
2022/03/20 07:21:50;;;;;;;27.25;18.52;;;;;;;;;;10175574;28;20073;-54
2022/03/20 07:32:06;;;;;;;;;;;;;;;;;;10187436;28;20094;-52
2022/03/20 07:37:06;;;;;;;26.30;18.90;;;;;;;;;;10189849;28;20350;-54
2022/03/20 07:42:05;;;;;;;21.00;14.43;;;;;;;;;;10190464;28;20088;-54
2022/03/20 07:47:17;;;;;;;27.90;17.10;;;;;;;;;;10189504;28;20490;-52
2022/03/20 07:52:16;;;;;;;;;;;;;;;;;;10196833;28;20089;-54
2022/03/20 07:57:16;;;;;;;16.58;12.43;;;;;;;;;;10197763;28;19967;-53
2022/03/20 08:02:15;;;;;;;21.05;13.90;;;;;;;;;;10192747;28;20522;-54
2022/03/20 08:07:14;;;;;;;20.08;12.10;;;;;;;;;;10197512;28;20490;-56
2022/03/20 08:12:12;;;;;;;17.70;11.85;;;;;;;;;;10196858;28;20479;-53
2022/03/20 08:17:31;;;;;;;17.17;10.80;;;;;;;;;;10190453;28;20065;-51
2022/03/20 08:22:30;;;;;;;19.35;12.05;;;;;;;;;;10191419;28;20084;-54
2022/03/20 08:27:28;;;;;;;19.27;12.32;;;;;;;;;;10192483;28;20078;-55
2022/03/20 08:32:27;;;;;;;15.20;10.82;;;;;;;;;;10196839;28;20077;-53
2022/03/20 08:37:27;;;;;;;18.52;14.13;;;;;;;;;;10196375;28;20057;-51
2022/03/20 08:42:25;;;;;;;14.88;11.23;;;;;;;;;;10194940;28;20065;-53
2022/03/20 08:47:25;;;;;;;13.70;11.07;;;;;;;;;;10195947;28;20085;-53
2022/03/20 08:52:24;;;;;;;16.95;10.35;;;;;;;;;;10191310;28;20564;-54
2022/03/20 08:57:25;;;;;;;15.05;12.13;;;;;;;;;;10195187;28;20045;-55
2022/03/20 09:02:23;;;;;;;19.05;13.82;;;;;;;;;;10194944;28;20089;-53
2022/03/20 09:07:21;;;;;;;14.32;10.80;;;;;;;;;;10193920;28;20534;-53
2022/03/20 09:12:20;;;;;;;15.90;11.13;;;;;;;;;;10194741;28;20212;-55
2022/03/20 09:22:37;;;;;;;20.90;13.85;;;;;;;;;;10181720;28;20085;-55
2022/03/20 09:27:36;;;;;;;26.70;14.73;;;;;;;;;;10189425;28;20096;-51
2022/03/20 09:32:35;;;;;;;21.45;15.00;;;;;;;;;;10189270;28;20074;-56
2022/03/20 09:37:34;;;;;;;23.95;14.90;;;;;;;;;;10193319;28;21886;-51
2022/03/20 09:42:34;;;;;;;19.45;11.95;;;;;;;;;;10194027;28;20081;-54
2022/03/20 09:47:35;;;;;;;15.45;11.10;;;;;;;;;;10189078;28;20077;-52
2022/03/20 09:52:35;;;;;;;18.40;13.55;;;;;;;;;;10188929;28;20080;-51
2022/03/20 09:57:33;;;;;;;18.92;13.45;;;;;;;;;;10187840;28;20080;-53
2022/03/20 10:02:32;;;;;;;15.00;10.50;;;;;;;;;;10188503;28;20085;-55
2022/03/20 10:07:31;;;;;;;21.20;13.40;;;;;;;;;;10188791;28;20069;-55
2022/03/20 10:12:34;;;;;;;20.40;12.25;;;;;;;;;;10187817;28;20073;-52
2022/03/20 10:17:32;;;;;;;11.20;7.93;;;;;;;;;;10190189;28;20104;-54
2022/03/20 10:22:33;;;;;;;30.00;15.93;;;;;;;;;;10188965;28;20081;-52
2022/03/20 10:27:34;;;;;;;13.40;8.32;;;;;;;;;;10188876;28;20077;-54
2022/03/20 10:32:32;;;;;;;12.48;8.30;;;;;;;;;;10184995;28;20070;-51
2022/03/20 10:37:44;;;;;;;11.50;8.23;;;;;;;;;;10181082;28;20549;-53
2022/03/20 10:42:44;;;;;;;15.65;8.73;;;;;;;;;;10178340;28;20057;-54
2022/03/20 10:47:43;;;;;;;13.52;10.93;;;;;;;;;;10185516;28;20077;-54
2022/03/20 10:52:41;;;;;;;16.85;10.23;;;;;;;;;;10170037;28;20065;-50
2022/03/20 10:57:40;;;;;;;14.27;9.77;;;;;;;;;;10192097;28;20531;-50
2022/03/20 11:02:41;;;;;;;22.25;16.08;;;;;;;;;;10176764;28;20468;-52
2022/03/20 11:07:39;;;;;;;19.13;13.35;;;;;;;;;;10187374;28;20077;-54
2022/03/20 11:12:40;;;;;;;15.30;11.70;;;;;;;;;;10179297;28;21371;-51
2022/03/20 11:17:39;;;;;;;11.85;8.57;;;;;;;;;;10171080;28;20456;-55
2022/03/20 11:22:43;;;;;;;16.92;11.00;;;;;;;;;;10166411;28;20523;-49
2022/03/20 11:27:42;;;;;;;19.20;13.52;;;;;;;;;;10180452;28;20077;-55
2022/03/20 11:32:48;;;;;;;17.83;10.90;;;;;;;;;;10167301;28;20077;-54
2022/03/20 11:37:49;;;;;;;18.20;11.52;;;;;;;;;;10168377;28;20074;-48
2022/03/20 11:42:48;;;;;;;11.40;8.63;;;;;;;;;;10196421;28;20529;-51
2022/03/20 11:47:48;;;;;;;14.82;10.93;;;;;;;;;;10195185;28;20104;-53
2022/03/20 11:52:55;;;;;;;21.58;11.68;;;;;;;;;;10182160;28;20077;-52
2022/03/20 11:57:54;;;;;;;19.13;11.35;;;;;;;;;;10189625;28;20487;-55
2022/03/20 12:03:04;;;;;;;18.75;14.00;;;;;;;;;;10184032;28;20076;-53
2022/03/20 12:08:10;;;;;;;15.77;10.63;;;;;;;;;;10193704;28;20456;-49
2022/03/20 12:13:14;;;;;;;11.27;7.50;;;;;;;;;;10196266;28;20077;-51
2022/03/20 12:18:12;;;;;;;15.55;11.07;;;;;;;;;;10192567;28;20076;-50
2022/03/20 12:23:29;;;;;;;18.42;9.30;;;;;;;;;;10197450;28;20088;-52
2022/03/20 12:28:30;;;;;;;20.33;11.68;;;;;;;;;;10197358;28;20073;-52
2022/03/20 12:33:28;;;;;;;15.50;9.63;;;;;;;;;;10197140;28;20038;-53
2022/03/20 12:38:35;;;;;;;16.10;9.13;;;;;;;;;;10184189;28;20107;-54
2022/03/20 12:43:34;;;;;;;13.02;10.60;;;;;;;;;;10184408;28;20506;-51
2022/03/20 12:48:34;;;;;;;17.35;11.73;;;;;;;;;;10192525;28;20081;-56
2022/03/20 12:53:37;;;;;;;18.98;12.75;;;;;;;;;;10192219;28;20082;-49
2022/03/20 12:58:37;;;;;;;23.95;15.18;;;;;;;;;;10191179;28;20084;-48
2022/03/20 13:03:37;;;;;;;15.38;10.65;;;;;;;;;;10195905;28;20061;-53
2022/03/20 13:08:36;;;;;;;21.60;12.52;;;;;;;;;;10190017;28;20484;-53
2022/03/20 13:13:36;;;;;;;21.85;12.52;;;;;;;;;;10175770;28;20081;-51
2022/03/20 13:18:36;;;;;;;39.05;18.83;;;;;;;;;;10182955;28;20097;-52
2022/03/20 13:23:35;;;;;;;12.30;9.20;;;;;;;;;;10184995;28;20556;-51
2022/03/20 13:28:34;;;;;;;13.95;9.73;;;;;;;;;;10184588;28;20073;-51
2022/03/20 13:33:34;;;;;;;22.60;13.63;;;;;;;;;;10174921;28;20072;-52
2022/03/20 13:38:36;;;;;;;19.00;11.52;;;;;;;;;;10183808;28;20468;-53
2022/03/20 13:43:35;;;;;;;18.00;11.57;;;;;;;;;;10182710;28;20077;-53
2022/03/20 13:48:36;;;;;;;16.52;11.40;;;;;;;;;;10171412;28;20088;-53
2022/03/20 13:53:36;;;;;;;17.63;11.00;;;;;;;;;;10185901;28;20069;-52
2022/03/20 13:58:36;;;;;;;22.95;14.52;;;;;;;;;;10185971;28;20081;-57
2022/03/20 14:03:34;;;;;;;17.98;13.25;;;;;;;;;;10186067;28;20089;-55
2022/03/20 14:08:36;;;;;;;14.55;10.18;;;;;;;;;;10184703;28;20081;-52
2022/03/20 14:13:42;;;;;;;17.88;11.63;;;;;;;;;;10185259;28;20069;-54
2022/03/20 14:18:56;;;;;;;16.67;12.23;;;;;;;;;;10182789;28;20085;-53
2022/03/20 14:23:56;;;;;;;18.63;13.75;;;;;;;;;;10177554;28;20066;-53
2022/03/20 14:29:05;;;;;;;20.88;15.77;;;;;;;;;;10169897;28;20062;-52
2022/03/20 14:39:41;;;;;;;19.95;15.95;;;;;;;;;;10158477;28;20082;-54
2022/03/20 14:44:49;;;;;;;28.05;22.15;;;;;;;;;;10188294;28;20148;-51
2022/03/20 14:49:50;;;;;;;50.72;35.15;;;;;;;;;;10187861;28;20414;-53
2022/03/20 14:54:48;;;;;;;45.58;26.40;;;;;;;;;;10192580;28;20084;-55
2022/03/20 14:59:49;;;;;;;41.38;22.55;;;;;;;;;;10192112;28;20517;-49
2022/03/20 15:04:49;;;;;;;23.02;17.75;;;;;;;;;;10183761;28;20070;-50
2022/03/20 15:15:03;;;;;;;;;;;;;;;;;;10191629;28;20081;-52
2022/03/20 15:20:03;;;;;;;19.38;15.15;;;;;;;;;;10187157;28;19964;-55
2022/03/20 15:25:02;;;;;;;26.38;19.77;;;;;;;;;;10187362;28;20053;-53
2022/03/20 15:30:00;;;;;;;22.60;15.07;;;;;;;;;;10187369;28;20534;-54
2022/03/20 15:35:01;;;;;;;42.97;30.80;;;;;;;;;;10187036;28;20084;-54
2022/03/20 15:40:01;;;;;;;76.45;47.08;;;;;;;;;;10187374;28;20038;-53
2022/03/20 15:45:00;;;;;;;65.20;43.58;;;;;;;;;;10191883;28;20042;-54
2022/03/20 15:49:58;;;;;;;34.95;24.42;;;;;;;;;;10191797;28;20482;-54
2022/03/20 15:54:56;;;;;;;26.05;18.58;;;;;;;;;;10196060;28;20076;-55
2022/03/20 16:00:16;;;;;;;24.23;16.35;;;;;;;;;;10198861;28;20104;-53
2022/03/20 16:05:15;;;;;;;41.10;27.05;;;;;;;;;;10198690;28;20133;-54
2022/03/20 16:10:13;;;;;;;30.33;19.15;;;;;;;;;;10186216;28;20076;-54
2022/03/20 16:15:15;;;;;;;41.83;27.58;;;;;;;;;;10188432;28;20072;-52
2022/03/20 16:20:14;;;;;;;25.33;19.40;;;;;;;;;;10186151;28;20046;-56
2022/03/20 16:30:29;;;;;;;31.20;21.75;;;;;;;;;;10165883;28;20074;-53
2022/03/20 16:35:28;;;;;;;37.00;24.08;;;;;;;;;;10177097;28;20118;-51
2022/03/20 16:40:26;;;;;;;26.25;20.65;;;;;;;;;;10180306;28;20058;-54
2022/03/20 16:45:24;;;;;;;36.15;23.10;;;;;;;;;;10193317;28;20077;-54
2022/03/20 16:50:24;;;;;;;37.30;27.80;;;;;;;;;;10192936;28;20089;-50
2022/03/20 16:55:22;;;;;;;54.75;37.55;;;;;;;;;;10196331;28;20458;-52
2022/03/20 17:00:21;;;;;;;34.35;27.30;;;;;;;;;;10196566;28;20061;-52
2022/03/20 17:05:19;;;;;;;29.45;22.92;;;;;;;;;;10195537;28;20112;-52
2022/03/20 17:10:19;;;;;;;30.75;22.67;;;;;;;;;;10193387;28;20447;-51
2022/03/20 17:15:17;;;;;;;88.75;52.58;;;;;;;;;;10186429;28;20074;-47
2022/03/20 17:20:16;;;;;;;137.77;85.53;;;;;;;;;;10175591;28;20074;-57
2022/03/20 17:25:15;;;;;;;100.38;65.13;;;;;;;;;;10181177;28;20077;-53
2022/03/20 17:30:15;;;;;;;52.40;34.75;;;;;;;;;;10188070;28;20077;-53
2022/03/20 17:35:13;;;;;;;54.50;34.70;;;;;;;;;;10187656;28;20073;-56
2022/03/20 17:40:12;;;;;;;67.78;47.30;;;;;;;;;;10193909;28;20084;-52
2022/03/20 17:45:11;;;;;;;58.47;40.78;;;;;;;;;;10194360;28;20510;-51
2022/03/20 17:50:11;;;;;;;67.57;41.38;;;;;;;;;;10193954;28;20074;-48
2022/03/20 17:55:09;;;;;;;58.35;37.47;;;;;;;;;;10194246;28;20078;-53
2022/03/20 18:00:10;;;;;;;70.03;44.03;;;;;;;;;;10193429;28;20081;-52
2022/03/20 18:10:30;;;;;;;58.95;39.53;;;;;;;;;;10186457;28;20476;-49
2022/03/20 18:15:30;;;;;;;70.55;47.35;;;;;;;;;;10186454;28;20079;-55
2022/03/20 18:20:30;;;;;;;73.38;45.45;;;;;;;;;;10189220;28;20514;-53
2022/03/20 18:25:29;;;;;;;95.97;59.38;;;;;;;;;;10192693;28;20472;-51
2022/03/20 18:30:28;;;;;;;105.90;65.00;;;;;;;;;;10164351;28;20076;-50
2022/03/20 18:35:27;;;;;;;92.15;59.38;;;;;;;;;;10162021;28;20034;-53
2022/03/20 18:40:28;;;;;;;104.88;66.05;;;;;;;;;;10181256;28;20096;-53
2022/03/20 18:45:26;;;;;;;111.05;66.60;;;;;;;;;;10176659;28;20074;-55
2022/03/20 18:50:25;;;;;;;105.28;65.97;;;;;;;;;;10163889;28;20081;-55
2022/03/20 18:55:25;;;;;;;101.35;63.00;;;;;;;;;;10161979;28;20070;-54
2022/03/20 19:00:25;;;;;;;94.53;62.90;;;;;;;;;;10161392;28;20080;-56
2022/03/20 19:05:24;;;;;;;124.53;75.50;;;;;;;;;;10172020;28;20093;-53
2022/03/20 19:10:22;;;;;;;121.15;77.85;;;;;;;;;;10182703;28;20077;-51
2022/03/20 19:15:23;;;;;;;109.82;74.25;;;;;;;;;;10182849;28;20069;-52
2022/03/20 19:20:23;;;;;;;101.95;66.10;;;;;;;;;;10173097;28;20100;-53
2022/03/20 19:25:22;;;;;;;148.30;84.82;;;;;;;;;;10171833;28;20081;-54
2022/03/20 19:30:22;;;;;;;134.93;75.43;;;;;;;;;;10169125;28;20464;-55
2022/03/20 19:40:38;;;;;;;93.68;51.25;;;;;;;;;;10165344;28;20078;-51
2022/03/20 19:45:36;;;;;;;138.80;74.53;;;;;;;;;;10167414;28;20074;-52
2022/03/20 19:50:35;;;;;;;114.10;57.80;;;;;;;;;;10177682;28;20069;-55
2022/03/20 19:55:34;;;;;;;95.53;56.45;;;;;;;;;;10166017;28;20700;-52
2022/03/20 20:00:34;;;;;;;53.35;35.60;;;;;;;;;;10163680;28;20086;-57
2022/03/20 20:05:32;;;;;;;100.03;59.55;;;;;;;;;;10170960;28;20091;-53
2022/03/20 20:10:31;;;;;;;106.15;61.63;;;;;;;;;;10169732;28;20570;-53
2022/03/20 20:15:29;;;;;;;91.25;52.38;;;;;;;;;;10177877;28;20157;-55
2022/03/20 20:20:29;;;;;;;70.85;40.03;;;;;;;;;;10191706;28;20092;-54
2022/03/20 20:25:27;;;;;;;64.60;37.15;;;;;;;;;;10194625;28;20065;-51
2022/03/20 20:30:27;;;;;;;56.28;32.38;;;;;;;;;;10196741;28;20945;-53
2022/03/20 20:35:25;;;;;;;41.15;25.73;;;;;;;;;;10194369;28;20069;-54
2022/03/20 20:40:25;;;;;;;114.15;68.03;;;;;;;;;;10182234;28;20085;-53
2022/03/20 20:45:24;;;;;;;98.38;60.63;;;;;;;;;;10176641;28;20061;-52
2022/03/20 20:50:22;;;;;;;95.68;54.15;;;;;;;;;;10171043;28;20082;-52
2022/03/20 20:55:21;;;;;;;53.30;35.78;;;;;;;;;;10176273;28;20074;-52
2022/03/20 21:00:22;;;;;;;46.08;31.48;;;;;;;;;;10184478;28;20072;-53
2022/03/20 21:05:20;;;;;;;31.17;21.92;;;;;;;;;;10180659;28;20090;-55
2022/03/20 21:15:37;;;;;;;70.65;44.25;;;;;;;;;;10188380;28;20069;-54
2022/03/20 21:20:36;;;;;;;96.55;55.97;;;;;;;;;;10190196;28;20073;-55
2022/03/20 21:25:34;;;;;;;56.35;38.30;;;;;;;;;;10177965;28;20077;-56
2022/03/20 21:30:33;;;;;;;40.33;29.80;;;;;;;;;;10193906;28;20093;-54
2022/03/20 21:35:34;;;;;;;28.35;20.73;;;;;;;;;;10194604;28;20411;-50
2022/03/20 21:40:33;;;;;;;39.35;23.30;;;;;;;;;;10173765;28;20073;-54
2022/03/20 21:45:31;;;;;;;67.10;39.50;;;;;;;;;;10191834;28;20092;-55
2022/03/20 21:50:31;;;;;;;41.03;26.30;;;;;;;;;;10185162;28;20079;-55
2022/03/20 21:55:32;;;;;;;48.42;30.42;;;;;;;;;;10176873;28;20073;-53
2022/03/20 22:00:30;;;;;;;44.22;27.73;;;;;;;;;;10189496;28;20046;-54
2022/03/20 22:05:29;;;;;;;37.13;22.98;;;;;;;;;;10174999;28;20070;-52
2022/03/20 22:10:28;;;;;;;42.65;25.50;;;;;;;;;;10159889;28;20080;-55
2022/03/20 22:15:28;;;;;;;39.83;27.23;;;;;;;;;;10166506;28;20081;-54
2022/03/20 22:20:26;;;;;;;29.73;19.23;;;;;;;;;;10163178;28;20077;-56
2022/03/20 22:25:26;;;;;;;31.13;20.77;;;;;;;;;;10160178;28;20470;-53
2022/03/20 22:30:24;;;;;;;31.02;21.48;;;;;;;;;;10162556;28;20074;-55
2022/03/20 22:40:43;;;;;;;32.67;21.85;;;;;;;;;;10193051;28;20082;-55
2022/03/20 22:45:42;;;;;;;36.22;20.67;;;;;;;;;;10187520;28;20077;-53
2022/03/20 22:50:42;;;;;;;32.53;22.10;;;;;;;;;;10192571;28;20085;-55
2022/03/20 22:55:40;;;;;;;34.65;22.85;;;;;;;;;;10192641;28;20054;-52
2022/03/20 23:00:56;;;;;;;61.50;37.10;;;;;;;;;;10194620;28;20066;-55
2022/03/20 23:05:57;;;;;;;38.90;25.27;;;;;;;;;;10200431;28;20050;-56
2022/03/20 23:10:55;;;;;;;50.67;29.00;;;;;;;;;;10200292;28;20526;-56
2022/03/20 23:15:53;;;;;;;36.08;23.15;;;;;;;;;;10200614;28;20069;-54
2022/03/20 23:20:52;;;;;;;33.38;20.88;;;;;;;;;;10200459;28;20076;-53
2022/03/20 23:25:51;;;;;;;38.03;22.15;;;;;;;;;;10190484;28;20069;-56
2022/03/20 23:30:50;;;;;;;32.15;22.33;;;;;;;;;;10190078;28;20069;-53
2022/03/20 23:35:49;;;;;;;32.45;20.50;;;;;;;;;;10195064;28;20523;-55
2022/03/20 23:46:02;;;;;;;32.13;19.08;;;;;;;;;;10194406;28;20054;-55
2022/03/20 23:51:00;;;;;;;26.42;17.55;;;;;;;;;;10197009;28;20069;-54
2022/03/20 23:55:59;;;;;;;31.98;22.80;;;;;;;;;;10196495;28;20507;-55
